sensor_id;sensor_type;location;lat;lon;timestamp;P1;durP1;ratioP1;P2;durP2;ratioP2
73632;SDS011;61927;50.080;14.418;2023-07-24T00:01:16;7.53;;;3.65;;
73632;SDS011;61927;50.080;14.418;2023-07-24T00:03:43;4.95;;;3.75;;
73632;SDS011;61927;50.080;14.418;2023-07-24T00:06:09;5.55;;;3.47;;
73632;SDS011;61927;50.080;14.418;2023-07-24T00:08:35;5.95;;;3.67;;
73632;SDS011;61927;50.080;14.418;2023-07-24T00:11:01;7.75;;;3.67;;
73632;SDS011;61927;50.080;14.418;2023-07-24T00:13:29;4.78;;;3.78;;
73632;SDS011;61927;50.080;14.418;2023-07-24T00:15:56;4.05;;;3.58;;
73632;SDS011;61927;50.080;14.418;2023-07-24T00:18:22;4.60;;;3.33;;
73632;SDS011;61927;50.080;14.418;2023-07-24T00:20:48;8.57;;;3.75;;
73632;SDS011;61927;50.080;14.418;2023-07-24T00:23:13;3.83;;;3.28;;
73632;SDS011;61927;50.080;14.418;2023-07-24T00:25:39;4.60;;;3.72;;
73632;SDS011;61927;50.080;14.418;2023-07-24T00:28:04;7.10;;;3.63;;
73632;SDS011;61927;50.080;14.418;2023-07-24T00:30:30;7.50;;;3.80;;
73632;SDS011;61927;50.080;14.418;2023-07-24T00:32:55;6.13;;;3.83;;
73632;SDS011;61927;50.080;14.418;2023-07-24T00:35:21;6.97;;;4.00;;
73632;SDS011;61927;50.080;14.418;2023-07-24T00:37:47;5.22;;;4.30;;
73632;SDS011;61927;50.080;14.418;2023-07-24T00:40:12;4.75;;;3.40;;
73632;SDS011;61927;50.080;14.418;2023-07-24T00:42:38;4.53;;;3.67;;
73632;SDS011;61927;50.080;14.418;2023-07-24T00:45:03;8.07;;;3.60;;
73632;SDS011;61927;50.080;14.418;2023-07-24T00:47:29;4.07;;;3.67;;
73632;SDS011;61927;50.080;14.418;2023-07-24T00:49:55;4.88;;;3.88;;
73632;SDS011;61927;50.080;14.418;2023-07-24T00:52:22;4.55;;;3.55;;
73632;SDS011;61927;50.080;14.418;2023-07-24T00:54:47;4.25;;;3.85;;
73632;SDS011;61927;50.080;14.418;2023-07-24T00:57:14;4.47;;;3.75;;
73632;SDS011;61927;50.080;14.418;2023-07-24T00:59:40;7.43;;;3.65;;
73632;SDS011;61927;50.080;14.418;2023-07-24T01:02:07;7.00;;;3.60;;
73632;SDS011;61927;50.080;14.418;2023-07-24T01:04:33;8.43;;;3.70;;
73632;SDS011;61927;50.080;14.418;2023-07-24T01:06:59;4.65;;;3.72;;
73632;SDS011;61927;50.080;14.418;2023-07-24T01:09:25;4.53;;;3.88;;
73632;SDS011;61927;50.080;14.418;2023-07-24T01:11:52;7.75;;;3.97;;
73632;SDS011;61927;50.080;14.418;2023-07-24T01:14:29;6.68;;;3.67;;
73632;SDS011;61927;50.080;14.418;2023-07-24T01:17:01;6.03;;;3.85;;
73632;SDS011;61927;50.080;14.418;2023-07-24T01:19:36;4.18;;;3.75;;
73632;SDS011;61927;50.080;14.418;2023-07-24T01:27:48;7.20;;;4.13;;
73632;SDS011;61927;50.080;14.418;2023-07-24T01:30:16;4.00;;;3.50;;
73632;SDS011;61927;50.080;14.418;2023-07-24T01:32:43;4.90;;;3.42;;
73632;SDS011;61927;50.080;14.418;2023-07-24T01:35:09;5.22;;;3.97;;
73632;SDS011;61927;50.080;14.418;2023-07-24T01:37:34;5.07;;;3.58;;
73632;SDS011;61927;50.080;14.418;2023-07-24T01:40:04;8.43;;;3.80;;
73632;SDS011;61927;50.080;14.418;2023-07-24T01:42:34;5.05;;;4.10;;
73632;SDS011;61927;50.080;14.418;2023-07-24T01:45:01;4.05;;;3.58;;
73632;SDS011;61927;50.080;14.418;2023-07-24T01:47:29;9.68;;;5.50;;
73632;SDS011;61927;50.080;14.418;2023-07-24T01:49:55;14.48;;;4.13;;
73632;SDS011;61927;50.080;14.418;2023-07-24T01:52:21;6.20;;;3.72;;
73632;SDS011;61927;50.080;14.418;2023-07-24T01:54:47;5.78;;;4.43;;
73632;SDS011;61927;50.080;14.418;2023-07-24T01:57:13;10.25;;;3.88;;
73632;SDS011;61927;50.080;14.418;2023-07-24T01:59:39;4.88;;;3.90;;
73632;SDS011;61927;50.080;14.418;2023-07-24T02:02:05;9.23;;;3.97;;
73632;SDS011;61927;50.080;14.418;2023-07-24T02:04:30;5.60;;;4.00;;
73632;SDS011;61927;50.080;14.418;2023-07-24T02:06:56;8.60;;;4.10;;
73632;SDS011;61927;50.080;14.418;2023-07-24T02:09:21;4.68;;;3.80;;
73632;SDS011;61927;50.080;14.418;2023-07-24T02:11:47;13.20;;;6.57;;
73632;SDS011;61927;50.080;14.418;2023-07-24T02:14:13;10.55;;;6.63;;
73632;SDS011;61927;50.080;14.418;2023-07-24T02:16:40;5.75;;;4.30;;
73632;SDS011;61927;50.080;14.418;2023-07-24T02:19:05;7.90;;;4.10;;
73632;SDS011;61927;50.080;14.418;2023-07-24T02:21:31;6.05;;;4.15;;
73632;SDS011;61927;50.080;14.418;2023-07-24T02:23:57;5.63;;;4.70;;
73632;SDS011;61927;50.080;14.418;2023-07-24T02:26:23;5.90;;;3.42;;
73632;SDS011;61927;50.080;14.418;2023-07-24T02:28:48;5.60;;;4.07;;
73632;SDS011;61927;50.080;14.418;2023-07-24T02:31:14;4.00;;;3.63;;
73632;SDS011;61927;50.080;14.418;2023-07-24T02:33:39;7.63;;;4.50;;
73632;SDS011;61927;50.080;14.418;2023-07-24T02:36:05;9.55;;;4.00;;
73632;SDS011;61927;50.080;14.418;2023-07-24T02:38:30;9.57;;;4.15;;
73632;SDS011;61927;50.080;14.418;2023-07-24T02:40:56;12.30;;;4.00;;
73632;SDS011;61927;50.080;14.418;2023-07-24T02:43:22;5.93;;;4.18;;
73632;SDS011;61927;50.080;14.418;2023-07-24T02:45:48;4.78;;;3.92;;
73632;SDS011;61927;50.080;14.418;2023-07-24T02:48:13;8.07;;;4.03;;
73632;SDS011;61927;50.080;14.418;2023-07-24T02:50:39;9.55;;;4.28;;
73632;SDS011;61927;50.080;14.418;2023-07-24T02:53:05;7.93;;;4.30;;
73632;SDS011;61927;50.080;14.418;2023-07-24T02:55:30;5.93;;;3.83;;
73632;SDS011;61927;50.080;14.418;2023-07-24T02:57:56;5.53;;;3.80;;
73632;SDS011;61927;50.080;14.418;2023-07-24T03:00:22;5.15;;;3.90;;
73632;SDS011;61927;50.080;14.418;2023-07-24T03:02:47;11.25;;;4.40;;
73632;SDS011;61927;50.080;14.418;2023-07-24T03:05:13;5.97;;;4.47;;
73632;SDS011;61927;50.080;14.418;2023-07-24T03:07:38;13.27;;;4.20;;
73632;SDS011;61927;50.080;14.418;2023-07-24T03:10:04;6.47;;;4.15;;
73632;SDS011;61927;50.080;14.418;2023-07-24T03:12:30;5.78;;;3.80;;
73632;SDS011;61927;50.080;14.418;2023-07-24T03:14:56;5.85;;;4.07;;
73632;SDS011;61927;50.080;14.418;2023-07-24T03:17:22;6.15;;;4.22;;
73632;SDS011;61927;50.080;14.418;2023-07-24T03:19:48;7.35;;;4.22;;
73632;SDS011;61927;50.080;14.418;2023-07-24T03:22:14;15.35;;;4.68;;
73632;SDS011;61927;50.080;14.418;2023-07-24T03:24:40;4.60;;;4.03;;
73632;SDS011;61927;50.080;14.418;2023-07-24T03:27:05;7.40;;;4.70;;
73632;SDS011;61927;50.080;14.418;2023-07-24T03:29:31;13.80;;;4.25;;
73632;SDS011;61927;50.080;14.418;2023-07-24T03:31:57;16.48;;;5.40;;
73632;SDS011;61927;50.080;14.418;2023-07-24T03:34:23;8.00;;;4.50;;
73632;SDS011;61927;50.080;14.418;2023-07-24T03:36:48;14.35;;;4.00;;
73632;SDS011;61927;50.080;14.418;2023-07-24T03:39:14;7.80;;;4.20;;
73632;SDS011;61927;50.080;14.418;2023-07-24T03:41:41;8.18;;;4.82;;
73632;SDS011;61927;50.080;14.418;2023-07-24T03:44:07;7.13;;;4.30;;
73632;SDS011;61927;50.080;14.418;2023-07-24T03:46:33;7.32;;;3.97;;
73632;SDS011;61927;50.080;14.418;2023-07-24T03:48:59;8.60;;;4.28;;
73632;SDS011;61927;50.080;14.418;2023-07-24T03:51:24;9.70;;;4.75;;
73632;SDS011;61927;50.080;14.418;2023-07-24T03:53:50;8.93;;;4.32;;
73632;SDS011;61927;50.080;14.418;2023-07-24T03:56:15;8.95;;;4.60;;
73632;SDS011;61927;50.080;14.418;2023-07-24T03:58:41;7.55;;;4.80;;
73632;SDS011;61927;50.080;14.418;2023-07-24T04:01:07;9.95;;;4.50;;
73632;SDS011;61927;50.080;14.418;2023-07-24T04:03:33;12.20;;;4.72;;
73632;SDS011;61927;50.080;14.418;2023-07-24T04:05:59;6.30;;;4.47;;
73632;SDS011;61927;50.080;14.418;2023-07-24T04:08:25;12.70;;;4.50;;
73632;SDS011;61927;50.080;14.418;2023-07-24T04:10:51;5.05;;;4.55;;
73632;SDS011;61927;50.080;14.418;2023-07-24T04:13:16;6.43;;;4.90;;
73632;SDS011;61927;50.080;14.418;2023-07-24T04:15:42;11.75;;;5.13;;
73632;SDS011;61927;50.080;14.418;2023-07-24T04:18:09;12.13;;;4.78;;
73632;SDS011;61927;50.080;14.418;2023-07-24T04:20:35;8.93;;;5.28;;
73632;SDS011;61927;50.080;14.418;2023-07-24T04:23:02;11.98;;;4.80;;
73632;SDS011;61927;50.080;14.418;2023-07-24T04:25:28;8.45;;;4.97;;
73632;SDS011;61927;50.080;14.418;2023-07-24T04:27:53;7.47;;;4.90;;
73632;SDS011;61927;50.080;14.418;2023-07-24T04:30:19;10.40;;;5.00;;
73632;SDS011;61927;50.080;14.418;2023-07-24T04:32:45;6.35;;;5.10;;
73632;SDS011;61927;50.080;14.418;2023-07-24T04:35:11;9.43;;;6.15;;
73632;SDS011;61927;50.080;14.418;2023-07-24T04:37:37;8.15;;;5.10;;
73632;SDS011;61927;50.080;14.418;2023-07-24T04:40:02;8.18;;;4.88;;
73632;SDS011;61927;50.080;14.418;2023-07-24T04:42:28;7.65;;;4.97;;
73632;SDS011;61927;50.080;14.418;2023-07-24T04:44:54;12.82;;;6.47;;
73632;SDS011;61927;50.080;14.418;2023-07-24T04:47:19;15.43;;;4.85;;
73632;SDS011;61927;50.080;14.418;2023-07-24T04:49:46;7.82;;;5.60;;
73632;SDS011;61927;50.080;14.418;2023-07-24T04:52:12;9.00;;;5.50;;
73632;SDS011;61927;50.080;14.418;2023-07-24T04:54:37;7.15;;;4.68;;
73632;SDS011;61927;50.080;14.418;2023-07-24T04:57:03;11.23;;;5.30;;
73632;SDS011;61927;50.080;14.418;2023-07-24T04:59:29;9.07;;;4.50;;
73632;SDS011;61927;50.080;14.418;2023-07-24T05:01:54;9.48;;;5.18;;
73632;SDS011;61927;50.080;14.418;2023-07-24T05:04:21;9.20;;;5.43;;
73632;SDS011;61927;50.080;14.418;2023-07-24T05:06:46;8.27;;;5.13;;
73632;SDS011;61927;50.080;14.418;2023-07-24T05:09:12;11.05;;;4.80;;
73632;SDS011;61927;50.080;14.418;2023-07-24T05:11:37;9.20;;;4.60;;
73632;SDS011;61927;50.080;14.418;2023-07-24T05:14:03;11.23;;;4.72;;
73632;SDS011;61927;50.080;14.418;2023-07-24T05:16:29;8.00;;;4.97;;
73632;SDS011;61927;50.080;14.418;2023-07-24T05:18:54;12.02;;;5.22;;
73632;SDS011;61927;50.080;14.418;2023-07-24T05:21:20;9.18;;;5.15;;
73632;SDS011;61927;50.080;14.418;2023-07-24T05:23:46;6.25;;;4.90;;
73632;SDS011;61927;50.080;14.418;2023-07-24T05:26:12;7.38;;;5.10;;
73632;SDS011;61927;50.080;14.418;2023-07-24T05:28:37;12.88;;;4.65;;
73632;SDS011;61927;50.080;14.418;2023-07-24T05:31:03;7.13;;;4.82;;
73632;SDS011;61927;50.080;14.418;2023-07-24T05:33:30;10.65;;;5.47;;
73632;SDS011;61927;50.080;14.418;2023-07-24T05:36:00;19.17;;;5.90;;
73632;SDS011;61927;50.080;14.418;2023-07-24T05:38:29;8.98;;;5.00;;
73632;SDS011;61927;50.080;14.418;2023-07-24T05:40:59;9.07;;;4.88;;
73632;SDS011;61927;50.080;14.418;2023-07-24T05:43:26;7.50;;;4.72;;
73632;SDS011;61927;50.080;14.418;2023-07-24T05:45:52;10.20;;;5.47;;
73632;SDS011;61927;50.080;14.418;2023-07-24T05:48:18;11.43;;;4.97;;
73632;SDS011;61927;50.080;14.418;2023-07-24T05:50:44;8.18;;;5.60;;
73632;SDS011;61927;50.080;14.418;2023-07-24T05:53:10;11.63;;;5.60;;
73632;SDS011;61927;50.080;14.418;2023-07-24T05:55:36;9.25;;;5.60;;
73632;SDS011;61927;50.080;14.418;2023-07-24T05:58:01;11.73;;;6.03;;
73632;SDS011;61927;50.080;14.418;2023-07-24T06:00:27;8.93;;;5.20;;
73632;SDS011;61927;50.080;14.418;2023-07-24T06:02:53;8.48;;;5.63;;
73632;SDS011;61927;50.080;14.418;2023-07-24T06:05:19;11.00;;;5.22;;
73632;SDS011;61927;50.080;14.418;2023-07-24T06:07:45;10.10;;;4.93;;
73632;SDS011;61927;50.080;14.418;2023-07-24T06:10:14;10.48;;;5.35;;
73632;SDS011;61927;50.080;14.418;2023-07-24T06:12:39;11.82;;;5.50;;
73632;SDS011;61927;50.080;14.418;2023-07-24T06:15:05;8.68;;;4.93;;
73632;SDS011;61927;50.080;14.418;2023-07-24T06:17:31;10.32;;;5.30;;
73632;SDS011;61927;50.080;14.418;2023-07-24T06:19:57;13.23;;;5.20;;
73632;SDS011;61927;50.080;14.418;2023-07-24T06:22:23;9.10;;;5.50;;
73632;SDS011;61927;50.080;14.418;2023-07-24T06:24:49;11.77;;;5.68;;
73632;SDS011;61927;50.080;14.418;2023-07-24T06:27:14;16.90;;;5.05;;
73632;SDS011;61927;50.080;14.418;2023-07-24T06:29:40;9.45;;;6.03;;
73632;SDS011;61927;50.080;14.418;2023-07-24T06:32:06;9.82;;;5.57;;
73632;SDS011;61927;50.080;14.418;2023-07-24T06:34:33;18.42;;;5.72;;
73632;SDS011;61927;50.080;14.418;2023-07-24T06:36:58;40.55;;;6.82;;
73632;SDS011;61927;50.080;14.418;2023-07-24T06:39:24;9.07;;;4.95;;
73632;SDS011;61927;50.080;14.418;2023-07-24T06:41:53;9.52;;;5.25;;
73632;SDS011;61927;50.080;14.418;2023-07-24T06:44:19;10.50;;;5.43;;
73632;SDS011;61927;50.080;14.418;2023-07-24T06:46:45;12.25;;;5.40;;
73632;SDS011;61927;50.080;14.418;2023-07-24T06:49:11;13.02;;;5.53;;
73632;SDS011;61927;50.080;14.418;2023-07-24T06:51:36;37.28;;;7.05;;
73632;SDS011;61927;50.080;14.418;2023-07-24T06:54:04;11.32;;;5.40;;
73632;SDS011;61927;50.080;14.418;2023-07-24T06:56:30;9.50;;;5.60;;
73632;SDS011;61927;50.080;14.418;2023-07-24T06:58:56;17.52;;;5.28;;
73632;SDS011;61927;50.080;14.418;2023-07-24T07:01:22;43.47;;;7.03;;
73632;SDS011;61927;50.080;14.418;2023-07-24T07:03:48;11.65;;;6.20;;
73632;SDS011;61927;50.080;14.418;2023-07-24T07:06:13;19.42;;;5.53;;
73632;SDS011;61927;50.080;14.418;2023-07-24T07:08:39;12.68;;;5.45;;
73632;SDS011;61927;50.080;14.418;2023-07-24T07:11:04;22.15;;;5.55;;
73632;SDS011;61927;50.080;14.418;2023-07-24T07:13:30;6.53;;;4.80;;
73632;SDS011;61927;50.080;14.418;2023-07-24T07:15:56;8.27;;;5.40;;
73632;SDS011;61927;50.080;14.418;2023-07-24T07:18:22;15.68;;;8.05;;
73632;SDS011;61927;50.080;14.418;2023-07-24T07:20:48;15.82;;;5.97;;
73632;SDS011;61927;50.080;14.418;2023-07-24T07:23:17;12.65;;;5.90;;
73632;SDS011;61927;50.080;14.418;2023-07-24T07:25:43;8.73;;;5.60;;
73632;SDS011;61927;50.080;14.418;2023-07-24T07:28:14;12.35;;;6.32;;
73632;SDS011;61927;50.080;14.418;2023-07-24T07:30:40;16.88;;;6.00;;
73632;SDS011;61927;50.080;14.418;2023-07-24T07:33:07;12.18;;;5.30;;
73632;SDS011;61927;50.080;14.418;2023-07-24T07:35:33;12.23;;;5.93;;
73632;SDS011;61927;50.080;14.418;2023-07-24T07:37:59;26.75;;;6.35;;
73632;SDS011;61927;50.080;14.418;2023-07-24T07:40:25;14.30;;;5.88;;
73632;SDS011;61927;50.080;14.418;2023-07-24T07:42:52;16.23;;;5.90;;
73632;SDS011;61927;50.080;14.418;2023-07-24T07:45:18;11.32;;;6.07;;
73632;SDS011;61927;50.080;14.418;2023-07-24T07:47:44;15.93;;;6.20;;
73632;SDS011;61927;50.080;14.418;2023-07-24T07:50:10;19.73;;;6.68;;
73632;SDS011;61927;50.080;14.418;2023-07-24T07:52:36;21.92;;;5.80;;
73632;SDS011;61927;50.080;14.418;2023-07-24T07:55:02;32.30;;;7.43;;
73632;SDS011;61927;50.080;14.418;2023-07-24T07:57:28;16.70;;;5.55;;
73632;SDS011;61927;50.080;14.418;2023-07-24T07:59:53;10.68;;;5.78;;
73632;SDS011;61927;50.080;14.418;2023-07-24T08:02:19;14.90;;;5.82;;
73632;SDS011;61927;50.080;14.418;2023-07-24T08:04:44;10.57;;;5.93;;
73632;SDS011;61927;50.080;14.418;2023-07-24T08:07:10;18.80;;;6.93;;
73632;SDS011;61927;50.080;14.418;2023-07-24T08:09:36;16.25;;;6.55;;
73632;SDS011;61927;50.080;14.418;2023-07-24T08:12:03;14.50;;;5.95;;
73632;SDS011;61927;50.080;14.418;2023-07-24T08:14:29;10.05;;;6.25;;
73632;SDS011;61927;50.080;14.418;2023-07-24T08:16:55;14.13;;;6.38;;
73632;SDS011;61927;50.080;14.418;2023-07-24T08:19:21;12.07;;;6.22;;
73632;SDS011;61927;50.080;14.418;2023-07-24T08:21:47;9.98;;;6.28;;
73632;SDS011;61927;50.080;14.418;2023-07-24T08:24:12;18.80;;;6.25;;
73632;SDS011;61927;50.080;14.418;2023-07-24T08:26:38;10.52;;;5.68;;
73632;SDS011;61927;50.080;14.418;2023-07-24T08:29:03;8.13;;;5.32;;
73632;SDS011;61927;50.080;14.418;2023-07-24T08:31:30;7.25;;;5.55;;
73632;SDS011;61927;50.080;14.418;2023-07-24T08:33:56;7.93;;;5.45;;
73632;SDS011;61927;50.080;14.418;2023-07-24T08:36:21;12.20;;;5.57;;
73632;SDS011;61927;50.080;14.418;2023-07-24T08:38:47;7.35;;;5.57;;
73632;SDS011;61927;50.080;14.418;2023-07-24T08:41:13;18.95;;;6.07;;
73632;SDS011;61927;50.080;14.418;2023-07-24T08:43:43;8.27;;;5.85;;
73632;SDS011;61927;50.080;14.418;2023-07-24T08:46:09;34.67;;;8.30;;
73632;SDS011;61927;50.080;14.418;2023-07-24T08:48:39;12.23;;;5.90;;
73632;SDS011;61927;50.080;14.418;2023-07-24T08:51:06;7.97;;;5.85;;
73632;SDS011;61927;50.080;14.418;2023-07-24T08:53:34;11.25;;;5.50;;
73632;SDS011;61927;50.080;14.418;2023-07-24T08:56:03;9.43;;;5.43;;
73632;SDS011;61927;50.080;14.418;2023-07-24T08:58:29;12.68;;;5.40;;
73632;SDS011;61927;50.080;14.418;2023-07-24T09:01:00;11.82;;;6.00;;
73632;SDS011;61927;50.080;14.418;2023-07-24T09:03:26;13.52;;;7.32;;
73632;SDS011;61927;50.080;14.418;2023-07-24T09:05:53;18.92;;;7.05;;
73632;SDS011;61927;50.080;14.418;2023-07-24T09:08:28;13.30;;;6.07;;
73632;SDS011;61927;50.080;14.418;2023-07-24T09:10:55;16.10;;;6.60;;
73632;SDS011;61927;50.080;14.418;2023-07-24T09:13:20;15.90;;;5.85;;
73632;SDS011;61927;50.080;14.418;2023-07-24T09:15:46;10.38;;;6.47;;
73632;SDS011;61927;50.080;14.418;2023-07-24T09:18:12;12.10;;;5.85;;
73632;SDS011;61927;50.080;14.418;2023-07-24T09:20:38;18.17;;;6.05;;
73632;SDS011;61927;50.080;14.418;2023-07-24T09:23:06;11.55;;;5.45;;
73632;SDS011;61927;50.080;14.418;2023-07-24T09:25:33;9.38;;;5.60;;
73632;SDS011;61927;50.080;14.418;2023-07-24T09:28:00;10.88;;;6.30;;
73632;SDS011;61927;50.080;14.418;2023-07-24T09:30:26;9.80;;;5.80;;
73632;SDS011;61927;50.080;14.418;2023-07-24T09:32:52;13.48;;;10.23;;
73632;SDS011;61927;50.080;14.418;2023-07-24T09:35:19;12.07;;;6.15;;
73632;SDS011;61927;50.080;14.418;2023-07-24T09:37:46;7.60;;;5.50;;
73632;SDS011;61927;50.080;14.418;2023-07-24T09:40:13;7.80;;;6.18;;
73632;SDS011;61927;50.080;14.418;2023-07-24T09:42:40;7.95;;;5.22;;
73632;SDS011;61927;50.080;14.418;2023-07-24T09:45:06;11.15;;;6.38;;
73632;SDS011;61927;50.080;14.418;2023-07-24T09:47:33;22.60;;;11.13;;
73632;SDS011;61927;50.080;14.418;2023-07-24T09:50:02;9.35;;;6.95;;
73632;SDS011;61927;50.080;14.418;2023-07-24T09:52:29;9.73;;;6.93;;
73632;SDS011;61927;50.080;14.418;2023-07-24T09:57:35;11.40;;;8.25;;
73632;SDS011;61927;50.080;14.418;2023-07-24T10:00:02;13.90;;;7.05;;
73632;SDS011;61927;50.080;14.418;2023-07-24T10:02:28;12.45;;;7.05;;
73632;SDS011;61927;50.080;14.418;2023-07-24T10:04:55;13.23;;;6.90;;
73632;SDS011;61927;50.080;14.418;2023-07-24T10:07:22;13.48;;;6.13;;
73632;SDS011;61927;50.080;14.418;2023-07-24T10:09:48;14.70;;;6.38;;
73632;SDS011;61927;50.080;14.418;2023-07-24T10:12:19;16.33;;;6.43;;
73632;SDS011;61927;50.080;14.418;2023-07-24T10:14:45;14.55;;;6.53;;
73632;SDS011;61927;50.080;14.418;2023-07-24T10:17:12;14.60;;;5.90;;
73632;SDS011;61927;50.080;14.418;2023-07-24T10:19:43;8.80;;;6.57;;
73632;SDS011;61927;50.080;14.418;2023-07-24T10:22:16;10.25;;;6.25;;
73632;SDS011;61927;50.080;14.418;2023-07-24T10:24:44;13.35;;;6.13;;
73632;SDS011;61927;50.080;14.418;2023-07-24T10:27:10;17.52;;;6.57;;
73632;SDS011;61927;50.080;14.418;2023-07-24T10:29:36;7.93;;;5.47;;
73632;SDS011;61927;50.080;14.418;2023-07-24T10:32:03;10.70;;;5.85;;
73632;SDS011;61927;50.080;14.418;2023-07-24T10:34:38;8.85;;;6.30;;
73632;SDS011;61927;50.080;14.418;2023-07-24T10:37:07;8.98;;;6.35;;
73632;SDS011;61927;50.080;14.418;2023-07-24T10:39:37;14.93;;;7.28;;
73632;SDS011;61927;50.080;14.418;2023-07-24T10:42:07;9.73;;;6.10;;
73632;SDS011;61927;50.080;14.418;2023-07-24T10:44:34;9.05;;;6.32;;
73632;SDS011;61927;50.080;14.418;2023-07-24T10:47:01;10.80;;;7.45;;
73632;SDS011;61927;50.080;14.418;2023-07-24T10:49:26;17.58;;;6.15;;
73632;SDS011;61927;50.080;14.418;2023-07-24T10:51:56;14.57;;;6.22;;
73632;SDS011;61927;50.080;14.418;2023-07-24T10:54:22;18.55;;;7.20;;
73632;SDS011;61927;50.080;14.418;2023-07-24T10:56:48;13.05;;;7.82;;
73632;SDS011;61927;50.080;14.418;2023-07-24T10:59:13;13.00;;;6.30;;
73632;SDS011;61927;50.080;14.418;2023-07-24T11:01:40;9.18;;;6.45;;
73632;SDS011;61927;50.080;14.418;2023-07-24T11:04:06;14.75;;;6.00;;
73632;SDS011;61927;50.080;14.418;2023-07-24T11:06:34;8.20;;;5.15;;
73632;SDS011;61927;50.080;14.418;2023-07-24T11:08:59;15.98;;;6.63;;
73632;SDS011;61927;50.080;14.418;2023-07-24T11:11:33;9.20;;;5.80;;
73632;SDS011;61927;50.080;14.418;2023-07-24T11:14:01;9.13;;;5.63;;
73632;SDS011;61927;50.080;14.418;2023-07-24T11:16:27;10.50;;;5.57;;
73632;SDS011;61927;50.080;14.418;2023-07-24T11:18:55;15.38;;;6.22;;
73632;SDS011;61927;50.080;14.418;2023-07-24T11:21:22;7.20;;;5.47;;
73632;SDS011;61927;50.080;14.418;2023-07-24T11:23:52;8.57;;;5.80;;
73632;SDS011;61927;50.080;14.418;2023-07-24T11:26:19;23.58;;;6.38;;
73632;SDS011;61927;50.080;14.418;2023-07-24T11:28:46;20.45;;;5.50;;
73632;SDS011;61927;50.080;14.418;2023-07-24T11:31:11;13.63;;;5.63;;
73632;SDS011;61927;50.080;14.418;2023-07-24T11:33:37;9.38;;;5.45;;
73632;SDS011;61927;50.080;14.418;2023-07-24T11:36:04;12.23;;;5.68;;
73632;SDS011;61927;50.080;14.418;2023-07-24T11:38:30;12.55;;;5.75;;
73632;SDS011;61927;50.080;14.418;2023-07-24T11:40:56;21.58;;;6.50;;
73632;SDS011;61927;50.080;14.418;2023-07-24T11:43:23;12.05;;;5.25;;
73632;SDS011;61927;50.080;14.418;2023-07-24T11:45:50;14.45;;;5.97;;
73632;SDS011;61927;50.080;14.418;2023-07-24T11:48:21;11.00;;;5.90;;
73632;SDS011;61927;50.080;14.418;2023-07-24T11:50:49;15.63;;;6.13;;
73632;SDS011;61927;50.080;14.418;2023-07-24T11:53:20;15.68;;;6.00;;
73632;SDS011;61927;50.080;14.418;2023-07-24T11:55:50;13.93;;;6.60;;
73632;SDS011;61927;50.080;14.418;2023-07-24T11:58:18;14.13;;;6.70;;
73632;SDS011;61927;50.080;14.418;2023-07-24T12:00:48;12.60;;;6.43;;
73632;SDS011;61927;50.080;14.418;2023-07-24T12:03:21;19.83;;;6.47;;
73632;SDS011;61927;50.080;14.418;2023-07-24T12:05:49;14.90;;;5.80;;
73632;SDS011;61927;50.080;14.418;2023-07-24T12:08:16;15.85;;;6.68;;
73632;SDS011;61927;50.080;14.418;2023-07-24T12:10:43;10.05;;;6.22;;
73632;SDS011;61927;50.080;14.418;2023-07-24T12:13:09;15.57;;;6.57;;
73632;SDS011;61927;50.080;14.418;2023-07-24T12:15:34;15.15;;;6.70;;
73632;SDS011;61927;50.080;14.418;2023-07-24T12:18:01;28.10;;;7.22;;
73632;SDS011;61927;50.080;14.418;2023-07-24T12:20:27;15.68;;;6.22;;
73632;SDS011;61927;50.080;14.418;2023-07-24T12:22:54;12.45;;;6.28;;
73632;SDS011;61927;50.080;14.418;2023-07-24T12:25:19;12.50;;;6.90;;
73632;SDS011;61927;50.080;14.418;2023-07-24T12:27:46;15.15;;;6.95;;
73632;SDS011;61927;50.080;14.418;2023-07-24T12:30:12;17.92;;;6.80;;
73632;SDS011;61927;50.080;14.418;2023-07-24T12:32:38;13.68;;;5.93;;
73632;SDS011;61927;50.080;14.418;2023-07-24T12:35:03;17.70;;;7.28;;
73632;SDS011;61927;50.080;14.418;2023-07-24T12:37:30;16.90;;;7.13;;
73632;SDS011;61927;50.080;14.418;2023-07-24T12:39:56;13.50;;;6.55;;
73632;SDS011;61927;50.080;14.418;2023-07-24T12:42:22;8.27;;;6.55;;
73632;SDS011;61927;50.080;14.418;2023-07-24T12:44:48;13.15;;;7.05;;
73632;SDS011;61927;50.080;14.418;2023-07-24T12:47:14;14.43;;;7.28;;
73632;SDS011;61927;50.080;14.418;2023-07-24T12:49:40;16.67;;;7.55;;
73632;SDS011;61927;50.080;14.418;2023-07-24T12:52:06;12.13;;;6.20;;
73632;SDS011;61927;50.080;14.418;2023-07-24T12:54:32;21.60;;;7.13;;
73632;SDS011;61927;50.080;14.418;2023-07-24T12:56:59;14.20;;;6.53;;
73632;SDS011;61927;50.080;14.418;2023-07-24T12:59:25;18.33;;;7.30;;
73632;SDS011;61927;50.080;14.418;2023-07-24T13:01:51;12.65;;;6.40;;
73632;SDS011;61927;50.080;14.418;2023-07-24T13:04:17;12.93;;;6.88;;
73632;SDS011;61927;50.080;14.418;2023-07-24T13:06:44;16.48;;;6.95;;
73632;SDS011;61927;50.080;14.418;2023-07-24T13:09:10;11.73;;;6.45;;
73632;SDS011;61927;50.080;14.418;2023-07-24T13:11:35;28.00;;;7.32;;
73632;SDS011;61927;50.080;14.418;2023-07-24T13:14:01;10.77;;;6.90;;
73632;SDS011;61927;50.080;14.418;2023-07-24T13:16:27;13.25;;;6.85;;
73632;SDS011;61927;50.080;14.418;2023-07-24T13:18:53;11.45;;;6.40;;
73632;SDS011;61927;50.080;14.418;2023-07-24T13:21:19;13.73;;;6.70;;
73632;SDS011;61927;50.080;14.418;2023-07-24T13:23:44;10.88;;;6.63;;
73632;SDS011;61927;50.080;14.418;2023-07-24T13:26:10;9.13;;;7.40;;
73632;SDS011;61927;50.080;14.418;2023-07-24T13:28:38;10.43;;;7.55;;
73632;SDS011;61927;50.080;14.418;2023-07-24T13:31:14;12.45;;;6.32;;
73632;SDS011;61927;50.080;14.418;2023-07-24T13:33:41;25.70;;;6.95;;
73632;SDS011;61927;50.080;14.418;2023-07-24T13:36:07;7.93;;;5.93;;
73632;SDS011;61927;50.080;14.418;2023-07-24T13:38:33;15.10;;;6.40;;
73632;SDS011;61927;50.080;14.418;2023-07-24T13:40:59;11.48;;;6.70;;
73632;SDS011;61927;50.080;14.418;2023-07-24T13:43:25;13.82;;;6.95;;
73632;SDS011;61927;50.080;14.418;2023-07-24T13:45:51;10.30;;;5.85;;
73632;SDS011;61927;50.080;14.418;2023-07-24T13:48:17;17.67;;;6.07;;
73632;SDS011;61927;50.080;14.418;2023-07-24T13:50:42;12.18;;;6.45;;
73632;SDS011;61927;50.080;14.418;2023-07-24T13:53:08;8.48;;;6.38;;
73632;SDS011;61927;50.080;14.418;2023-07-24T13:55:34;6.90;;;5.82;;
73632;SDS011;61927;50.080;14.418;2023-07-24T13:57:59;9.52;;;6.22;;
73632;SDS011;61927;50.080;14.418;2023-07-24T14:00:25;10.57;;;5.45;;
73632;SDS011;61927;50.080;14.418;2023-07-24T14:02:51;7.50;;;5.50;;
73632;SDS011;61927;50.080;14.418;2023-07-24T14:05:17;10.88;;;5.97;;
73632;SDS011;61927;50.080;14.418;2023-07-24T14:07:43;10.82;;;6.32;;
73632;SDS011;61927;50.080;14.418;2023-07-24T14:10:10;8.35;;;6.63;;
73632;SDS011;61927;50.080;14.418;2023-07-24T14:12:35;7.32;;;5.55;;
73632;SDS011;61927;50.080;14.418;2023-07-24T14:15:01;11.05;;;5.82;;
73632;SDS011;61927;50.080;14.418;2023-07-24T14:17:27;9.45;;;5.18;;
73632;SDS011;61927;50.080;14.418;2023-07-24T14:19:53;16.23;;;6.10;;
73632;SDS011;61927;50.080;14.418;2023-07-24T14:22:19;16.27;;;8.30;;
73632;SDS011;61927;50.080;14.418;2023-07-24T14:24:45;13.45;;;6.00;;
73632;SDS011;61927;50.080;14.418;2023-07-24T14:27:11;11.75;;;5.43;;
73632;SDS011;61927;50.080;14.418;2023-07-24T14:29:38;7.53;;;5.15;;
73632;SDS011;61927;50.080;14.418;2023-07-24T14:32:04;12.43;;;6.20;;